Time;durP1;ratioP1;P1;durP2;ratioP2;P2;SDS_P1;SDS_P2;PMS_P1;PMS_P2;Temp;Humidity;BMP_temperature;BMP_pressure;BME280_temperature;BME280_humidity;BME280_pressure;Samples;Min_cycle;Max_cycle;Signal;HPM_P1;HPM_P2
2021/12/23 00:01:45;;;;;;;81.03;23.07;;;0.40;99.90;;;;;;5030082;28;20585;-80
2021/12/23 00:04:12;;;;;;;43.80;21.33;;;0.40;99.90;;;;;;5058806;28;20216;-80
2021/12/23 00:06:40;;;;;;;43.57;20.53;;;0.40;99.90;;;;;;5051208;28;20228;-79
2021/12/23 00:09:07;;;;;;;43.87;20.53;;;0.40;99.90;;;;;;5050466;28;20231;-80
2021/12/23 00:11:34;;;;;;;73.50;22.53;;;0.30;99.90;;;;;;5035294;28;20774;-79
2021/12/23 00:14:03;;;;;;;40.93;20.10;;;0.30;99.90;;;;;;5036645;28;20226;-79
2021/12/23 00:16:42;;;;;;;139.80;26.53;;;0.30;99.90;;;;;;5057009;28;20229;-79
2021/12/23 00:19:21;;;;;;;49.33;19.77;;;0.30;99.90;;;;;;5036692;28;20300;-79
2021/12/23 00:24:33;;;;;;;49.23;21.00;;;0.30;99.90;;;;;;5027747;28;20254;-79
2021/12/23 00:27:00;;;;;;;40.60;20.03;;;0.20;99.90;;;;;;5034897;28;20681;-79
2021/12/23 00:29:27;;;;;;;45.77;20.60;;;0.20;99.90;;;;;;5018557;28;20725;-80
2021/12/23 00:31:54;;;;;;;90.67;22.73;;;0.20;99.90;;;;;;5011533;28;20230;-80
2021/12/23 00:34:22;;;;;;;47.27;19.97;;;0.20;99.90;;;;;;5033569;28;20312;-80
2021/12/23 00:36:49;;;;;;;42.13;19.93;;;0.20;99.90;;;;;;5009618;28;20815;-80
2021/12/23 00:39:17;;;;;;;49.53;20.40;;;0.30;99.90;;;;;;5030175;28;20232;-80
2021/12/23 00:41:45;;;;;;;47.80;19.87;;;0.30;99.90;;;;;;5013048;28;20215;-80
2021/12/23 00:44:11;;;;;;;54.73;21.70;;;0.30;99.90;;;;;;5036419;28;20225;-82
2021/12/23 00:46:38;;;;;;;37.13;19.47;;;0.30;99.90;;;;;;5032090;28;20580;-80
2021/12/23 00:49:06;;;;;;;39.03;19.37;;;0.30;99.90;;;;;;5017738;28;20240;-81
2021/12/23 00:51:34;;;;;;;71.57;20.00;;;0.30;99.90;;;;;;5029428;28;20227;-80
2021/12/23 00:54:04;;;;;;;50.00;20.03;;;0.30;99.90;;;;;;5047267;28;20846;-81
2021/12/23 00:56:32;;;;;;;40.77;19.70;;;0.30;99.90;;;;;;5010199;28;20316;-80
2021/12/23 00:58:59;;;;;;;41.43;19.23;;;0.40;99.90;;;;;;5024147;28;20220;-79
2021/12/23 01:01:26;;;;;;;36.97;18.83;;;0.40;99.90;;;;;;5017583;28;20236;-79
2021/12/23 01:03:53;;;;;;;48.40;18.27;;;0.40;99.90;;;;;;5037592;28;20693;-80
2021/12/23 01:06:20;;;;;;;38.17;18.23;;;0.40;99.90;;;;;;5032473;28;20223;-81
2021/12/23 01:08:48;;;;;;;37.00;18.70;;;0.40;99.90;;;;;;5010885;28;20218;-80
2021/12/23 01:11:15;;;;;;;37.10;17.97;;;0.40;99.90;;;;;;5009248;28;20217;-80
2021/12/23 01:13:48;;;;;;;33.63;17.60;;;0.40;99.90;;;;;;5027252;28;20318;-80
2021/12/23 01:16:25;;;;;;;40.70;18.77;;;0.40;99.90;;;;;;5028594;28;20751;-80
2021/12/23 01:18:55;;;;;;;33.03;17.00;;;0.40;99.90;;;;;;5045906;28;20231;-80
2021/12/23 01:21:22;;;;;;;35.63;17.87;;;0.50;99.90;;;;;;5026695;28;20706;-80
2021/12/23 01:23:53;;;;;;;37.57;17.27;;;0.50;99.90;;;;;;5055075;28;20560;-79
2021/12/23 01:26:22;;;;;;;34.83;17.80;;;0.50;99.90;;;;;;5030912;28;20223;-79
2021/12/23 01:28:52;;;;;;;32.47;17.07;;;0.50;99.90;;;;;;5054339;28;20213;-80
2021/12/23 01:31:19;;;;;;;37.00;17.03;;;0.50;99.90;;;;;;5030968;28;20241;-79
2021/12/23 01:33:47;;;;;;;33.10;17.07;;;0.50;99.90;;;;;;5044866;28;20221;-79
2021/12/23 01:36:14;;;;;;;33.73;17.43;;;0.50;99.90;;;;;;5027745;28;20247;-79
2021/12/23 01:38:41;;;;;;;37.27;17.30;;;0.60;99.90;;;;;;5047722;28;20215;-79
2021/12/23 01:41:09;;;;;;;45.30;17.87;;;0.60;99.90;;;;;;5029772;28;20711;-79
2021/12/23 01:43:36;;;;;;;33.63;17.50;;;0.60;99.90;;;;;;5027223;28;20221;-78
2021/12/23 01:46:03;;;;;;;32.90;16.37;;;0.60;99.90;;;;;;5051373;28;20224;-79
2021/12/23 01:48:30;;;;;;;33.53;17.07;;;0.70;99.90;;;;;;5030697;28;20239;-79
2021/12/23 01:50:57;;;;;;;32.40;17.10;;;0.60;99.90;;;;;;5048885;28;20216;-80
2021/12/23 01:53:24;;;;;;;31.70;17.57;;;0.70;99.90;;;;;;5032609;28;20216;-80
2021/12/23 01:55:50;;;;;;;32.83;16.73;;;0.70;99.90;;;;;;5031267;28;20570;-80
2021/12/23 01:58:19;;;;;;;33.63;17.13;;;0.70;99.90;;;;;;5034616;28;20270;-80
2021/12/23 02:00:49;;;;;;;34.00;17.90;;;0.80;99.90;;;;;;5028778;28;20223;-80
2021/12/23 02:03:16;;;;;;;31.03;16.30;;;0.80;99.90;;;;;;5029892;28;20225;-81
2021/12/23 02:05:44;;;;;;;36.33;17.27;;;0.80;99.90;;;;;;5034592;28;20225;-80
2021/12/23 02:08:11;;;;;;;31.10;16.47;;;0.80;99.90;;;;;;5037396;28;20377;-81
2021/12/23 02:10:39;;;;;;;54.77;17.03;;;0.90;99.90;;;;;;5033238;28;20219;-80
2021/12/23 02:13:06;;;;;;;37.53;16.57;;;0.90;99.90;;;;;;5038948;28;20746;-80
2021/12/23 02:15:34;;;;;;;33.17;16.90;;;0.90;99.90;;;;;;5034157;28;20228;-80
2021/12/23 02:18:00;;;;;;;30.30;16.87;;;0.90;99.90;;;;;;5040675;28;21926;-81
2021/12/23 02:20:32;;;;;;;29.43;16.77;;;0.90;99.90;;;;;;5034247;28;20217;-80
2021/12/23 02:22:59;;;;;;;32.60;16.43;;;0.90;99.90;;;;;;5035961;28;20737;-81
2021/12/23 02:25:26;;;;;;;32.00;17.17;;;0.90;99.90;;;;;;5047335;28;20916;-81
2021/12/23 02:27:54;;;;;;;29.73;16.37;;;1.00;99.90;;;;;;5035924;28;20225;-79
2021/12/23 02:30:24;;;;;;;32.60;15.97;;;1.00;99.90;;;;;;5043476;28;20278;-79
2021/12/23 02:32:51;;;;;;;32.00;16.97;;;1.00;99.90;;;;;;5060442;28;20217;-79
2021/12/23 02:35:19;;;;;;;31.37;16.20;;;1.00;99.90;;;;;;5054118;28;20547;-79
2021/12/23 02:37:48;;;;;;;30.17;16.57;;;1.00;99.90;;;;;;5059389;28;20234;-79
2021/12/23 02:40:29;;;;;;;32.37;17.00;;;1.00;99.90;;;;;;5038579;28;20224;-79
2021/12/23 02:42:56;;;;;;;41.50;16.70;;;1.00;99.90;;;;;;5043225;28;20224;-79
2021/12/23 02:45:23;;;;;;;31.00;16.13;;;1.00;99.90;;;;;;5032002;28;20747;-79
2021/12/23 02:47:50;;;;;;;31.23;16.17;;;1.00;99.90;;;;;;5063350;28;20213;-79
2021/12/23 02:50:17;;;;;;;30.73;16.10;;;1.00;99.90;;;;;;5032270;28;20600;-78
2021/12/23 02:52:43;;;;;;;33.90;16.80;;;1.00;99.90;;;;;;5037739;28;20255;-79
2021/12/23 02:55:12;;;;;;;30.00;17.17;;;1.00;99.90;;;;;;5043974;28;20224;-79
2021/12/23 02:57:38;;;;;;;27.53;16.20;;;1.00;99.90;;;;;;5045750;28;20217;-79
2021/12/23 03:00:07;;;;;;;27.23;15.93;;;1.00;99.90;;;;;;5035681;28;20234;-79
2021/12/23 03:02:33;;;;;;;29.03;16.60;;;1.10;99.90;;;;;;5027407;28;20230;-79
2021/12/23 03:05:00;;;;;;;41.50;18.00;;;1.10;99.90;;;;;;5057783;28;20213;-79
2021/12/23 03:07:27;;;;;;;34.60;17.20;;;1.10;99.90;;;;;;5036255;28;20229;-80
2021/12/23 03:09:54;;;;;;;29.00;16.07;;;1.10;99.90;;;;;;5009296;28;20840;-80
2021/12/23 03:12:22;;;;;;;37.30;15.67;;;1.10;99.90;;;;;;5030264;28;20217;-80
2021/12/23 03:14:49;;;;;;;29.37;15.73;;;1.10;99.90;;;;;;5048546;28;20583;-79
2021/12/23 03:17:15;;;;;;;31.03;17.03;;;1.10;99.90;;;;;;5053957;28;20223;-80
2021/12/23 03:19:42;;;;;;;30.93;15.83;;;1.10;99.90;;;;;;5050275;28;20226;-79
2021/12/23 03:22:09;;;;;;;30.07;17.00;;;1.10;99.90;;;;;;5031399;28;20213;-80
2021/12/23 03:24:35;;;;;;;32.97;16.37;;;1.20;99.90;;;;;;5046630;28;20251;-79
2021/12/23 03:27:02;;;;;;;29.97;16.27;;;1.20;99.90;;;;;;5065730;28;20212;-79
2021/12/23 03:29:30;;;;;;;49.37;17.50;;;1.20;99.90;;;;;;5063697;28;20227;-79
2021/12/23 03:31:57;;;;;;;27.07;15.53;;;1.20;99.90;;;;;;5018959;28;20239;-79
2021/12/23 03:34:24;;;;;;;30.13;16.23;;;1.20;99.90;;;;;;5030788;28;20214;-79
2021/12/23 03:36:51;;;;;;;32.27;16.20;;;1.20;99.90;;;;;;5015132;28;20235;-79
2021/12/23 03:39:19;;;;;;;31.27;17.10;;;1.20;99.90;;;;;;5036164;28;20317;-79
2021/12/23 03:41:46;;;;;;;31.17;17.30;;;1.20;99.90;;;;;;5026376;28;20224;-79
2021/12/23 03:44:13;;;;;;;30.83;16.33;;;1.20;99.90;;;;;;5021671;28;20222;-79
2021/12/23 03:46:41;;;;;;;31.53;16.33;;;1.20;99.90;;;;;;5010680;28;20239;-78
2021/12/23 03:49:09;;;;;;;28.60;16.60;;;1.20;99.90;;;;;;5028724;28;20227;-79
2021/12/23 03:51:36;;;;;;;30.43;16.60;;;1.20;99.90;;;;;;5036289;28;20550;-79
2021/12/23 03:54:03;;;;;;;32.53;16.53;;;1.20;99.90;;;;;;5034895;28;20215;-78
2021/12/23 03:56:30;;;;;;;31.23;17.30;;;1.20;99.90;;;;;;5026224;28;20237;-78
2021/12/23 03:58:57;;;;;;;29.30;16.60;;;1.20;99.90;;;;;;5031069;28;20224;-79
2021/12/23 04:01:26;;;;;;;30.60;17.10;;;1.20;99.90;;;;;;5027102;28;20589;-79
2021/12/23 04:03:54;;;;;;;31.53;16.53;;;1.10;99.90;;;;;;5048383;28;20868;-79
2021/12/23 04:06:22;;;;;;;31.93;16.20;;;1.10;99.90;;;;;;5029782;28;20217;-79
2021/12/23 04:08:49;;;;;;;29.80;16.50;;;1.10;99.90;;;;;;5028466;28;20252;-79
2021/12/23 04:11:16;;;;;;;30.40;16.10;;;1.20;99.90;;;;;;5030990;28;20217;-79
2021/12/23 04:13:43;;;;;;;30.43;16.83;;;1.20;99.90;;;;;;5035307;28;20949;-78
2021/12/23 04:16:10;;;;;;;31.43;17.10;;;1.20;99.90;;;;;;5048522;28;20221;-79
2021/12/23 04:18:36;;;;;;;29.20;17.30;;;1.20;99.90;;;;;;5049264;28;20593;-78
2021/12/23 04:21:05;;;;;;;30.30;16.50;;;1.20;99.90;;;;;;5031202;28;20722;-79
2021/12/23 04:23:33;;;;;;;30.23;16.67;;;1.20;99.90;;;;;;5043162;28;20232;-79
2021/12/23 04:26:00;;;;;;;31.63;16.10;;;1.20;99.90;;;;;;5045651;28;20225;-80
2021/12/23 04:28:28;;;;;;;32.00;16.13;;;1.20;99.90;;;;;;5030076;28;20314;-80
2021/12/23 04:30:55;;;;;;;29.67;16.73;;;1.10;99.90;;;;;;5049170;28;20228;-79
2021/12/23 04:33:21;;;;;;;31.87;16.77;;;1.10;99.90;;;;;;5028579;28;20241;-80
2021/12/23 04:35:48;;;;;;;28.63;17.17;;;1.20;99.90;;;;;;5050404;28;20289;-80
2021/12/23 04:38:16;;;;;;;30.37;15.97;;;1.10;99.90;;;;;;5028037;28;20225;-80
2021/12/23 04:40:43;;;;;;;28.30;16.03;;;1.10;99.90;;;;;;5048712;28;20212;-79
2021/12/23 04:43:10;;;;;;;31.00;16.13;;;1.10;99.90;;;;;;5044768;28;20249;-80
2021/12/23 04:45:37;;;;;;;31.10;16.47;;;1.10;99.90;;;;;;5029759;28;20238;-80
2021/12/23 04:48:04;;;;;;;30.53;15.70;;;1.20;99.90;;;;;;5030341;28;20216;-80
2021/12/23 04:50:31;;;;;;;30.17;15.80;;;1.20;99.90;;;;;;5030667;28;20225;-79
2021/12/23 04:52:57;;;;;;;29.93;16.47;;;1.20;99.90;;;;;;5040457;28;20829;-79
2021/12/23 04:55:26;;;;;;;33.90;17.17;;;1.20;99.90;;;;;;5027303;28;20231;-80
2021/12/23 04:57:52;;;;;;;33.30;17.90;;;1.20;99.90;;;;;;5029975;28;20223;-80
2021/12/23 05:00:22;;;;;;;32.93;17.73;;;1.20;99.90;;;;;;5029266;28;20248;-80
2021/12/23 05:02:49;;;;;;;32.07;16.07;;;1.20;99.90;;;;;;5042942;28;20248;-80
2021/12/23 05:05:16;;;;;;;30.33;16.20;;;1.20;99.90;;;;;;5045652;28;20848;-80
2021/12/23 05:07:43;;;;;;;29.87;16.70;;;1.20;99.90;;;;;;5029168;28;20226;-80
2021/12/23 05:10:12;;;;;;;31.57;16.57;;;1.20;99.90;;;;;;5032921;28;20221;-79
2021/12/23 05:12:44;;;;;;;31.50;17.47;;;1.20;99.90;;;;;;5046390;28;20231;-81
2021/12/23 05:15:12;;;;;;;53.87;18.57;;;1.20;99.90;;;;;;5027937;28;20229;-81
2021/12/23 05:17:39;;;;;;;29.27;16.60;;;1.20;99.90;;;;;;5046491;28;20217;-80
2021/12/23 05:20:08;;;;;;;29.90;17.70;;;1.20;99.90;;;;;;5036348;28;20356;-80
2021/12/23 05:22:35;;;;;;;44.93;18.00;;;1.30;99.90;;;;;;5043471;28;20243;-80
2021/12/23 05:25:02;;;;;;;39.37;17.87;;;1.30;99.90;;;;;;5046282;28;20225;-80
2021/12/23 05:27:28;;;;;;;32.77;17.43;;;1.30;99.90;;;;;;5052506;28;20982;-83
2021/12/23 05:29:56;;;;;;;34.13;17.53;;;1.30;99.90;;;;;;5030845;28;20223;-82
2021/12/23 05:32:23;;;;;;;32.67;18.20;;;1.30;99.90;;;;;;5027445;28;20230;-82
2021/12/23 05:34:50;;;;;;;30.20;17.43;;;1.30;99.90;;;;;;5029388;28;20222;-83
2021/12/23 05:37:17;;;;;;;27.87;16.37;;;1.20;99.90;;;;;;5031290;28;20234;-82
2021/12/23 05:39:43;;;;;;;60.60;19.53;;;1.30;99.90;;;;;;5034297;28;20217;-83
2021/12/23 05:42:10;;;;;;;128.60;22.57;;;1.30;99.90;;;;;;5050308;28;20227;-82
2021/12/23 05:44:37;;;;;;;33.17;16.97;;;1.40;99.90;;;;;;5032162;28;20583;-82
2021/12/23 05:47:05;;;;;;;31.00;17.90;;;1.40;99.90;;;;;;5051452;28;20215;-82
2021/12/23 05:49:32;;;;;;;51.53;18.40;;;1.40;99.90;;;;;;5057125;28;20247;-84
2021/12/23 05:52:00;;;;;;;29.83;16.80;;;1.40;99.90;;;;;;5036275;28;20230;-83
2021/12/23 05:54:26;;;;;;;33.87;18.13;;;1.50;99.90;;;;;;5037457;28;20229;-82
2021/12/23 05:56:53;;;;;;;27.73;17.03;;;1.40;99.90;;;;;;5054549;28;20223;-83
2021/12/23 05:59:20;;;;;;;54.20;19.17;;;1.50;99.90;;;;;;5037312;28;20231;-83
2021/12/23 06:01:46;;;;;;;43.80;17.33;;;1.50;99.90;;;;;;5053852;28;20295;-83
2021/12/23 06:04:14;;;;;;;28.70;17.87;;;1.50;99.90;;;;;;5053359;28;20245;-83
2021/12/23 06:06:41;;;;;;;29.17;17.13;;;1.50;99.90;;;;;;5033903;28;20652;-82
2021/12/23 06:09:08;;;;;;;30.00;17.23;;;1.50;99.90;;;;;;5034670;28;20394;-80
2021/12/23 06:11:34;;;;;;;30.27;17.43;;;1.50;99.90;;;;;;5038896;28;20219;-80
2021/12/23 06:14:01;;;;;;;29.67;18.03;;;1.50;99.90;;;;;;5049660;28;20592;-80
2021/12/23 06:16:28;;;;;;;31.57;17.30;;;1.50;99.90;;;;;;5049297;28;20228;-80
2021/12/23 06:18:55;;;;;;;27.27;16.30;;;1.40;99.90;;;;;;5050183;28;20216;-80
2021/12/23 06:21:27;;;;;;;30.40;17.50;;;1.40;99.90;;;;;;5051201;28;20233;-80
2021/12/23 06:23:53;;;;;;;33.03;18.67;;;1.40;99.90;;;;;;5040841;28;20220;-81
2021/12/23 06:26:21;;;;;;;30.00;16.57;;;1.50;99.90;;;;;;5051601;28;20332;-80
2021/12/23 06:28:48;;;;;;;40.37;17.60;;;1.40;99.90;;;;;;5029920;28;20226;-80
2021/12/23 06:31:14;;;;;;;29.93;17.37;;;1.50;99.90;;;;;;5030819;28;20693;-80
2021/12/23 06:33:41;;;;;;;35.47;16.97;;;1.50;99.90;;;;;;5027625;28;20220;-80
2021/12/23 06:36:08;;;;;;;29.13;17.83;;;1.40;99.90;;;;;;5052875;28;20213;-80
2021/12/23 06:38:36;;;;;;;29.13;16.43;;;1.50;99.90;;;;;;5050218;28;20248;-80
2021/12/23 06:41:03;;;;;;;32.03;17.40;;;1.50;99.90;;;;;;5031623;28;20314;-81
2021/12/23 06:43:30;;;;;;;35.63;17.43;;;1.50;99.90;;;;;;5030308;28;20607;-80
2021/12/23 06:45:56;;;;;;;30.40;16.17;;;1.60;99.90;;;;;;5031467;28;20573;-80
2021/12/23 06:48:23;;;;;;;27.43;16.20;;;1.50;99.90;;;;;;5030135;28;20352;-80
2021/12/23 06:50:53;;;;;;;27.93;16.33;;;1.50;99.90;;;;;;5031077;28;20736;-80
2021/12/23 06:53:20;;;;;;;29.87;17.00;;;1.50;99.90;;;;;;5026451;28;20222;-80
2021/12/23 06:55:50;;;;;;;27.77;16.40;;;1.50;99.90;;;;;;5049585;28;20226;-80
2021/12/23 06:58:17;;;;;;;28.63;17.07;;;1.50;99.90;;;;;;5030878;28;20225;-80
2021/12/23 07:00:44;;;;;;;27.17;15.97;;;1.50;99.90;;;;;;5030792;28;20226;-80
2021/12/23 07:03:10;;;;;;;26.37;16.60;;;1.50;99.90;;;;;;5043358;28;20832;-80
2021/12/23 07:05:37;;;;;;;29.20;16.90;;;1.50;99.90;;;;;;5048502;28;20308;-80
2021/12/23 07:08:09;;;;;;;29.90;15.70;;;1.50;99.90;;;;;;5030948;28;20231;-80
2021/12/23 07:10:36;;;;;;;29.10;17.30;;;1.50;99.90;;;;;;5048482;28;20224;-80
2021/12/23 07:13:05;;;;;;;28.03;15.87;;;1.50;99.90;;;;;;5045669;28;20227;-80
2021/12/23 07:15:33;;;;;;;29.40;17.63;;;1.50;99.90;;;;;;5030413;28;20213;-80
2021/12/23 07:18:01;;;;;;;26.67;16.13;;;1.50;99.90;;;;;;5030345;28;20236;-80
2021/12/23 07:20:30;;;;;;;26.20;15.53;;;1.50;99.90;;;;;;5030605;28;20649;-80
2021/12/23 07:22:57;;;;;;;27.93;17.67;;;1.50;99.90;;;;;;5047811;28;20216;-80
2021/12/23 07:25:23;;;;;;;30.23;16.30;;;1.50;99.90;;;;;;5044587;28;20225;-80
2021/12/23 07:27:50;;;;;;;27.27;15.53;;;1.50;99.90;;;;;;5049501;28;20836;-80
2021/12/23 07:30:20;;;;;;;31.27;17.10;;;1.50;99.90;;;;;;5048045;28;20218;-80
2021/12/23 07:32:47;;;;;;;28.20;15.93;;;1.60;99.90;;;;;;5055465;28;20224;-80
2021/12/23 07:35:15;;;;;;;28.87;17.30;;;1.60;99.90;;;;;;5030141;28;20618;-80
2021/12/23 07:37:42;;;;;;;25.27;15.70;;;1.60;99.90;;;;;;5030190;28;20238;-81
2021/12/23 07:40:13;;;;;;;27.00;17.73;;;1.60;99.90;;;;;;5047253;28;20222;-80
2021/12/23 07:42:44;;;;;;;29.63;18.47;;;1.60;99.90;;;;;;5036255;28;20315;-80
2021/12/23 07:45:10;;;;;;;28.50;16.97;;;1.70;99.90;;;;;;5030020;28;20224;-80
2021/12/23 07:47:38;;;;;;;23.97;15.27;;;1.70;99.90;;;;;;5029855;28;20299;-80
2021/12/23 07:50:06;;;;;;;27.83;16.87;;;1.70;99.90;;;;;;5029975;28;20235;-80
2021/12/23 07:52:34;;;;;;;26.87;16.67;;;1.80;99.90;;;;;;5045337;28;20228;-81
2021/12/23 07:55:00;;;;;;;27.60;16.53;;;1.80;99.90;;;;;;5029575;28;20222;-80
2021/12/23 07:57:27;;;;;;;27.20;16.93;;;1.80;99.90;;;;;;5026982;28;20230;-80
2021/12/23 07:59:54;;;;;;;28.60;16.30;;;1.80;99.90;;;;;;5028981;28;20222;-80
2021/12/23 08:02:21;;;;;;;27.77;16.20;;;1.90;99.90;;;;;;5047658;28;20700;-80
2021/12/23 08:04:49;;;;;;;27.03;16.17;;;1.90;99.90;;;;;;5027367;28;20751;-80
2021/12/23 08:07:16;;;;;;;27.33;15.83;;;1.90;99.90;;;;;;5029813;28;20228;-80
2021/12/23 08:09:42;;;;;;;26.90;15.90;;;2.00;99.90;;;;;;5032150;28;20292;-80
2021/12/23 08:12:10;;;;;;;28.47;15.97;;;2.00;99.90;;;;;;5045941;28;20218;-79
2021/12/23 08:14:37;;;;;;;28.07;15.70;;;2.00;99.90;;;;;;5052523;28;20219;-80
2021/12/23 08:17:04;;;;;;;28.87;16.40;;;2.00;99.90;;;;;;5029365;28;20222;-80
2021/12/23 08:19:30;;;;;;;26.27;15.93;;;2.00;99.90;;;;;;5032753;28;20690;-80
2021/12/23 08:21:59;;;;;;;27.97;16.17;;;2.00;99.90;;;;;;5054171;28;21016;-80
2021/12/23 08:24:25;;;;;;;25.53;16.67;;;2.10;99.90;;;;;;5028281;28;20220;-80
2021/12/23 08:26:53;;;;;;;28.93;16.60;;;2.10;99.90;;;;;;5037114;28;20221;-80
2021/12/23 08:29:21;;;;;;;27.13;15.93;;;2.10;99.90;;;;;;5029231;28;20229;-80
2021/12/23 08:31:52;;;;;;;26.27;15.83;;;2.20;99.90;;;;;;5046939;28;20739;-80
2021/12/23 08:34:19;;;;;;;28.63;17.20;;;2.20;99.90;;;;;;5027883;28;20255;-79
2021/12/23 08:36:46;;;;;;;27.53;15.50;;;2.20;99.90;;;;;;5028729;28;20230;-80
2021/12/23 08:39:14;;;;;;;27.43;15.93;;;2.20;99.90;;;;;;5048090;28;20220;-80
2021/12/23 08:41:41;;;;;;;27.20;16.63;;;2.20;99.90;;;;;;5029040;28;20229;-80
2021/12/23 08:44:08;;;;;;;30.67;17.10;;;2.20;99.90;;;;;;5052074;28;20694;-80
2021/12/23 08:46:34;;;;;;;28.00;17.03;;;2.20;99.90;;;;;;5046873;28;20225;-80
2021/12/23 08:49:01;;;;;;;27.40;16.23;;;2.10;99.90;;;;;;5047562;28;20229;-80
2021/12/23 08:51:28;;;;;;;28.97;16.03;;;2.20;99.90;;;;;;5041982;28;20226;-80
2021/12/23 08:53:54;;;;;;;31.93;17.10;;;2.20;99.90;;;;;;5022004;28;20233;-80
2021/12/23 08:56:22;;;;;;;27.30;16.07;;;2.10;99.90;;;;;;5046211;28;20702;-80
2021/12/23 08:58:49;;;;;;;30.47;17.73;;;2.10;99.90;;;;;;5033035;28;20235;-80
2021/12/23 09:01:16;;;;;;;26.17;16.60;;;2.10;99.90;;;;;;5046353;28;20767;-80
2021/12/23 09:03:43;;;;;;;30.93;17.53;;;2.20;99.90;;;;;;5021475;28;20223;-80
2021/12/23 09:06:10;;;;;;;29.97;16.80;;;2.10;99.90;;;;;;5046225;28;20231;-80
2021/12/23 09:08:36;;;;;;;26.00;16.77;;;2.20;99.90;;;;;;5028363;28;20219;-81
2021/12/23 09:11:04;;;;;;;28.00;16.53;;;2.20;99.90;;;;;;5040429;28;20220;-80
2021/12/23 09:13:32;;;;;;;28.10;16.70;;;2.20;99.90;;;;;;5050257;28;20250;-80
2021/12/23 09:15:59;;;;;;;30.90;17.87;;;2.20;99.90;;;;;;5031019;28;20227;-80
2021/12/23 09:18:26;;;;;;;29.30;17.47;;;2.30;99.90;;;;;;5046105;28;20247;-80
2021/12/23 09:20:55;;;;;;;27.80;17.07;;;2.20;99.90;;;;;;5028970;28;20222;-80
2021/12/23 09:23:22;;;;;;;28.40;17.57;;;2.30;99.90;;;;;;5026991;28;20228;-80
2021/12/23 09:25:51;;;;;;;25.67;15.83;;;2.30;99.90;;;;;;5026623;28;20256;-80
2021/12/23 09:28:33;;;;;;;29.30;16.40;;;2.30;99.90;;;;;;5028127;28;20264;-81
2021/12/23 09:33:46;;;;;;;26.43;15.53;;;2.40;99.90;;;;;;5045798;28;20742;-80
2021/12/23 09:36:14;;;;;;;28.37;16.40;;;2.40;99.90;;;;;;5027762;28;20659;-80
2021/12/23 09:38:40;;;;;;;27.93;16.37;;;2.40;99.90;;;;;;5045301;28;20898;-81
2021/12/23 09:41:09;;;;;;;24.37;16.30;;;2.50;99.90;;;;;;5046110;28;20228;-80
2021/12/23 09:43:39;;;;;;;28.30;16.83;;;2.50;99.90;;;;;;5043207;28;20310;-81
2021/12/23 09:46:10;;;;;;;25.17;16.10;;;2.50;99.90;;;;;;5028383;28;20236;-80
2021/12/23 09:48:39;;;;;;;28.30;16.43;;;2.60;99.90;;;;;;5045745;28;20225;-80
2021/12/23 09:51:07;;;;;;;28.80;17.13;;;2.70;99.90;;;;;;5051484;28;20218;-80
2021/12/23 09:53:37;;;;;;;27.73;16.50;;;2.70;99.90;;;;;;5044176;28;20674;-80
2021/12/23 09:56:04;;;;;;;25.90;16.50;;;2.80;99.90;;;;;;5025047;28;20791;-80
2021/12/23 09:58:31;;;;;;;30.30;17.00;;;2.70;99.90;;;;;;5046313;28;20217;-80
2021/12/23 10:00:59;;;;;;;26.90;16.50;;;2.80;99.90;;;;;;5022233;28;20225;-80
2021/12/23 10:03:28;;;;;;;26.77;16.57;;;2.80;99.90;;;;;;5026800;28;21064;-80
2021/12/23 10:05:57;;;;;;;27.43;15.67;;;2.80;99.90;;;;;;5027743;28;20335;-80
2021/12/23 10:08:24;;;;;;;28.37;16.43;;;2.80;99.90;;;;;;5019448;28;20950;-79
2021/12/23 10:10:55;;;;;;;25.20;15.27;;;2.80;99.90;;;;;;5029068;28;20949;-80
2021/12/23 10:38:29;;;;;;;27.60;17.40;;;2.90;99.90;;;;;;5043749;28;20242;-80
2021/12/23 10:40:59;;;;;;;25.63;16.90;;;3.00;99.90;;;;;;5048445;28;20801;-80
2021/12/23 10:43:29;;;;;;;26.90;16.90;;;3.00;99.90;;;;;;5025564;28;20338;-80
2021/12/23 10:45:59;;;;;;;25.83;16.40;;;3.10;99.90;;;;;;5046141;28;20273;-80
2021/12/23 10:48:29;;;;;;;24.00;16.50;;;3.10;99.90;;;;;;5047211;28;21040;-79
2021/12/23 10:51:02;;;;;;;26.00;16.63;;;3.20;99.90;;;;;;5046476;28;20216;-80
2021/12/23 10:53:44;;;;;;;27.80;16.80;;;3.20;99.90;;;;;;5031051;28;20401;-81
2021/12/23 10:59:10;;;;;;;24.80;16.33;;;3.30;99.90;;;;;;5045602;28;20357;-79
2021/12/23 11:01:58;;;;;;;26.07;17.50;;;3.30;99.90;;;;;;5032965;28;20246;-79
2021/12/23 11:04:25;;;;;;;29.23;18.47;;;3.30;99.90;;;;;;5043576;28;20242;-80
2021/12/23 11:07:10;;;;;;;28.33;17.30;;;3.30;99.90;;;;;;5029633;28;20235;-79
2021/12/23 11:09:54;;;;;;;25.03;16.40;;;3.40;99.90;;;;;;5049098;28;20223;-79
2021/12/23 11:35:48;;;;;;;23.00;15.17;;;3.40;99.90;;;;;;5100446;28;20347;-79
2021/12/23 11:38:22;;;;;;;23.30;15.63;;;3.40;99.90;;;;;;5096179;28;20316;-78
2021/12/23 11:40:54;;;;;;;26.40;16.17;;;3.40;99.90;;;;;;5098755;28;20717;-79
2021/12/23 11:43:44;;;;;;;22.30;14.93;;;3.40;99.90;;;;;;5094052;28;20236;-79
2021/12/23 11:46:11;;;;;;;25.27;15.63;;;3.40;99.90;;;;;;5100627;28;20217;-78
2021/12/23 11:48:44;;;;;;;25.90;16.30;;;3.40;99.90;;;;;;5094433;28;20324;-78
2021/12/23 11:51:16;;;;;;;25.20;15.80;;;3.40;99.90;;;;;;5103657;28;20292;-78
2021/12/23 11:53:45;;;;;;;24.03;15.77;;;3.40;99.90;;;;;;5099109;28;20225;-79
2021/12/23 11:56:14;;;;;;;22.53;15.17;;;3.40;99.90;;;;;;5101724;28;20287;-78
2021/12/23 11:58:43;;;;;;;25.67;15.60;;;3.40;99.90;;;;;;5102951;28;20344;-78
2021/12/23 12:01:14;;;;;;;24.13;15.70;;;3.40;99.90;;;;;;5099896;28;20241;-78
2021/12/23 12:03:54;;;;;;;23.30;15.47;;;3.40;99.90;;;;;;5099022;28;20305;-79
2021/12/23 12:06:24;;;;;;;23.50;16.00;;;3.40;99.90;;;;;;5103838;27;20244;-78
2021/12/23 12:08:54;;;;;;;23.50;15.23;;;3.50;99.90;;;;;;5103507;28;20297;-78
2021/12/23 12:11:23;;;;;;;24.37;16.23;;;3.40;99.90;;;;;;5105480;28;20689;-78
2021/12/23 12:13:50;;;;;;;24.07;15.43;;;3.50;99.90;;;;;;5102850;28;20347;-78
2021/12/23 12:16:29;;;;;;;23.43;15.83;;;3.50;99.90;;;;;;5102776;28;20230;-78
2021/12/23 12:18:57;;;;;;;25.90;16.90;;;3.50;99.90;;;;;;5101321;28;20233;-78
2021/12/23 12:21:28;;;;;;;24.00;17.57;;;3.60;99.90;;;;;;5103959;28;20212;-78
2021/12/23 12:24:10;;;;;;;26.10;16.93;;;3.50;99.90;;;;;;5102851;28;21020;-79
2021/12/23 12:26:53;;;;;;;27.50;17.70;;;3.50;99.90;;;;;;5088897;28;20237;-78
2021/12/23 12:29:21;;;;;;;23.87;16.37;;;3.60;99.90;;;;;;5103645;28;20215;-78
2021/12/23 12:31:48;;;;;;;23.17;15.60;;;3.60;99.90;;;;;;5102561;28;20697;-78
2021/12/23 12:34:19;;;;;;;25.07;16.93;;;3.60;99.90;;;;;;5110618;28;20218;-78
2021/12/23 12:36:49;;;;;;;25.50;16.53;;;3.60;99.90;;;;;;5104487;28;20229;-78
2021/12/23 12:39:25;;;;;;;25.60;16.90;;;3.60;99.90;;;;;;5102048;28;20228;-79
2021/12/23 12:42:00;;;;;;;24.13;15.27;;;3.60;99.90;;;;;;5094858;28;20747;-78
2021/12/23 12:44:40;;;;;;;22.50;15.40;;;3.70;99.90;;;;;;5085412;28;20223;-78
2021/12/23 12:47:13;;;;;;;24.93;15.20;;;3.70;99.90;;;;;;5081009;28;20227;-78
2021/12/23 12:49:46;;;;;;;20.43;14.57;;;3.70;99.90;;;;;;5095547;28;20229;-78
2021/12/23 12:52:25;;;;;;;22.60;15.97;;;3.70;99.90;;;;;;5086214;28;20278;-78
2021/12/23 12:54:58;;;;;;;25.70;16.67;;;3.70;99.90;;;;;;5082889;28;20249;-78
2021/12/23 12:57:31;;;;;;;26.23;15.27;;;3.70;99.90;;;;;;5089287;28;20221;-78
2021/12/23 13:00:14;;;;;;;27.23;16.27;;;3.80;99.90;;;;;;5079889;28;20316;-78
2021/12/23 13:02:41;;;;;;;23.37;15.77;;;3.80;99.90;;;;;;5080030;28;20251;-78
2021/12/23 13:05:11;;;;;;;22.97;15.40;;;3.80;99.90;;;;;;5085179;28;20235;-78
2021/12/23 13:07:57;;;;;;;24.07;15.60;;;3.80;99.90;;;;;;5088479;28;20450;-78
2021/12/23 13:10:36;;;;;;;26.77;17.00;;;3.90;99.90;;;;;;5087592;28;20210;-79
2021/12/23 13:13:32;;;;;;;23.47;15.53;;;3.90;99.90;;;;;;5086696;28;20329;-78
2021/12/23 13:16:51;;;;;;;23.20;15.53;;;3.90;99.90;;;;;;5070698;28;20222;-79
2021/12/23 13:19:21;;;;;;;24.70;15.20;;;4.00;99.90;;;;;;5087168;28;20229;-78
2021/12/23 13:21:54;;;;;;;25.70;16.70;;;3.90;99.90;;;;;;5090393;28;20688;-78
2021/12/23 13:24:23;;;;;;;23.03;15.87;;;3.90;99.90;;;;;;5087865;28;20268;-78
2021/12/23 13:26:50;;;;;;;25.57;16.93;;;3.90;99.90;;;;;;5094615;28;20738;-78
2021/12/23 13:29:18;;;;;;;24.33;16.67;;;3.80;99.90;;;;;;5088523;28;20224;-78
2021/12/23 13:31:46;;;;;;;28.67;16.83;;;3.80;99.90;;;;;;5087133;28;20270;-78
2021/12/23 13:34:18;;;;;;;26.13;16.97;;;3.80;99.90;;;;;;5086435;28;20243;-77
2021/12/23 13:36:48;;;;;;;25.27;16.60;;;3.70;99.90;;;;;;5090466;28;20223;-78
2021/12/23 13:39:19;;;;;;;28.47;17.83;;;3.70;99.90;;;;;;5086800;28;20232;-78
2021/12/23 13:41:47;;;;;;;26.53;17.27;;;3.70;99.90;;;;;;5093833;28;20218;-77